Aura, New Jersey
Current Conditions -  °F | °C
As of 6:54 AM on Friday 31 Oct 2014 (Local Time) from KPHL Reporting Station
Few Clouds Few Clouds  
Wind Chill: 34°   Ceiling: Unl
Heat Index: 40°   Visibility: 10mi
Dew Point: 32°   Wind: 8mph
Humidity: 73%   Direction: 350°N
Pressure: 30.02"   Gusts: NA
Location:  39.6996°N, 75.1187°W
Report Text: KPHL 311054Z 35007KT 10SM FEW055 04/00 A3002 RMK AO2 SLP164 T00440000
Loading
Personal Weather Stations






























Interactive Weather Map
Tropical Storm Tracking
New forecast layout! Learn more

10-Day Weather Forecast

Advertisements
Track Severe Weather on mobile